Du har inga inställningar för hoppväder.nu

Hoppväder.nu

Senast uppdaterat 08:00

UTC-tid

2018-12-13 kl. 07:00


Sol och måne

Solen går upp 8:50 och går ner 14:39 (beräknade cirkatider)
Nästa fullmåne blir om 9 dagar (2018-12-22)

METAR

ESSA (Arlanda, Stockholm)
(10 minuter sedan)
ESSA 130650Z 35006KT 9999 BKN004 M01/M01 Q1033 RWY 01L WET OR WATER PATCHES 51-100 PCT FCT 0.60 RWY 08 WET OR WATER PATCHES 51-100 PCT FCT 0.71 RWY 01R WET OR WATER PATCHES 51-100 PCT FCT 0.70 NOSIG=



ESSD (Borlänge)
(10 minuter sedan)
ESSD 130650Z 32004KT 9999 OVC020 M04/M05 Q1034=



EFMA (Mariehamn)
(10 minuter sedan)
EFMA 130650Z AUTO 02002KT 9999 SCT016 M01/M03 Q1033=



ESOW (Västerås)
(10 minuter sedan)
ESOW 130650Z AUTO 35005KT 320V020 9999 FZUP OVC004/// M02/M03 Q1034=






TAF

ESSA (Arlanda, Stockholm)
(90 minuter sedan)
ESSA 130530Z 1306/1406 36006KT 9999 OVC004 PROB40 1306/1406 4000 -SN SCT006 BKN020=



ESSD (Borlänge)
(30 minuter sedan)
ESSD RRA 130630Z 1307/1315 35006KT 9999 OVC020=



EFMA (Mariehamn)
(97 minuter sedan)
EFMA 130523Z 1306/1315 04007KT 9999 BKN015 TEMPO 1306/1308 7000 -SN BKN008 TEMPO 1308/1315 BKN012=



ESOW (Västerås)
ESOW





Kodnycklar till TAF och METAR






LHP

(Gryttjom är område F2c i Norra delen)

ÖVERSIKT FÖR OMRÅDE B UTFÄRDAD 130436
GÄLLANDE DEN 13 DECEMBER 2018 MELLAN 05 OCH 13 UTC


Väderöversikt

Ett högtryck ligger över Sverige

Sikt under 5 kilometer eller molnbas under 1000 fot
05-13UTC: I hela området


Måttlig eller svår isbildning
05-13UTC: I hela området


Måttlig eller svår turbulens
Väntas inte förekomma under perioden



PROGNOS FÖR OMRÅDE B DEN NORRA DELEN UTFÄRDAD 130436
GÄLLANDE DEN 13 DECEMBER 2018 MELLAN 05 OCH 13 UTC

Måttlig eller svår turbulens
05-13UTC: I hela området: Väntas inte förekomma under perioden

Måttlig eller svår isbildning
05-13UTC: I hela området: måttlig isbildning 500ft - FL060

Sikt/Väder/Moln
05-13UTC: Område F1a,F1b,F2a,F2b,F2c: Sikt 3km - >8km i snöfall. Molnbas <500ft - >2000ft.
Område F2d: Sikt >8km, lokalt 3km - 5km i snöfall. Molnbas <500ft, lokalt 1000ft - 1500ft.


Molnöversida
05-13UTC: I hela området: Molnöversida FL060.

CB/TCU Moln
05-13UTC: I hela området: Väntas inte förekomma under perioden

Nollgradersisoterm
05-13UTC: Noll grader SFC - 1500ft.

Vind vid marken
05-07UTC: Område F2a: NV-N/0-7 knop.
Område F1b: NO/0-15 knop, byar upp till 19 knop.
Område F1a: NV-N/1-13 knop, byar upp till 16 knop.
Område F2c: N/1-7 knop, byar upp till 12 knop.
Område F2d: N/1-6 knop.
Område F2b: N/0-4 knop.

07-09UTC: Område F1a: NV-N/2-14 knop, byar upp till 18 knop.
Område F2b: N/0-5 knop.
Område F1b: NO/0-14 knop, byar upp till 19 knop.
Område F2c: N/2-7 knop.
Område F2d: N/1-7 knop, byar upp till 12 knop.
Område F2a: NV-N/0-7 knop, byar upp till 11 knop.

09-11UTC: Område F2c: N/2-6 knop, byar upp till 13 knop.
Område F1b: NO/1-14 knop, byar upp till 19 knop.
Område F2d: N-NO/1-6 knop.
Område F2a: NV-N/0-5 knop, byar upp till 11 knop.
Område F2b: N/0-4 knop.
Område F1a: N/1-13 knop, byar upp till 18 knop.

11-13UTC: Område F1b: NO-O/0-14 knop, byar upp till 19 knop.
Område F2d: NO/1-6 knop.
Område F2a: NV-N/0-6 knop, byar upp till 11 knop.
Område F2b: N/0-5 knop, byar upp till 12 knop.
Område F2c: N/1-6 knop, byar upp till 12 knop.
Område F1a: N/1-12 knop, byar upp till 15 knop.


Vind och temperatur
2000ft:
05-09UTC: 70/16kt -8.
09-13UTC: 80/16kt -7.

FL50:
05-07UTC: 80/21kt -6.
07-09UTC: 80/23kt -6.
09-11UTC: 80/21kt -6.
11-13UTC: 90/21kt -7.

FL100:
05-07UTC: 80/29kt -13.
07-11UTC: 80/31kt -14.
11-13UTC: 80/29kt -14.

Lägsta QNH
1030 hPa.

OBS! endast utbredd måttlig eller svår isbildning och turbulens prognostiseras i LLF.
Avsaknad av isbildning och turbulens i prognosen utesluter inte förekomst av lätt isbildning och turbulens.
För indikation på lätt isbildning, var vänlig kontrollera om prognosen för molntopp ligger högre än nollgradersisotermen.
Förekomst av TCU eller CB medför alltid en risk för måttlig eller svår isbildning och turbulens även om det inte framgår explicit av prognosen.





Spotting

Hur fungerar spotthjälpen och Vindkartan?

Markvind är ca 1-4 m/s.
Vind på 600 m ca 8 m/s.
Vind på 1500 m ca 12 m/s.
Vind på 3000 m ca 16 m/s.
SE-GEE flyger ca 29 m/s över marken på finalen.
Du driver ca 718 m bakåt i frifall. (957 m)
Lämplig spot är 15 sekunder eller 440 m efter gropen.
(23 s eller 674 m)
För små grupper eller ensamhoppare bör man vänta 5-7 sekunder mellan grupperna.
För större grupper bör man vänta 10-12 sekunder mellan grupperna.


Vindkartan

Senast uppdaterad 08:00




All data kommer från LFV.se